Alert Airport, Northwest Territories

4:26 AM MDT on October 02, 2014 (GMT -0600)
Alert | Change Station
CLOSE
Current Station
Airport
Location: Alert Airport,
Elevation: 102 ft
Nearby Weather Stations

Elev 102 ft 82.52 °N, 62.28 °W | Updated 26 minutes ago

Light Snow
Light Snow
10 °F
Feels Like -2 °F
N
9
Wind Variable Wind from NNW

Today
High -- | Low -- °F
--% Chance of Precip.
Yesterday
High -- | Low -- °F
Precip. -- in
5:26 AM 2:25 PM
First Quarter, 57% visible
Pressure 30.18 in
Visibility 6.0 miles
Clouds Overcast 1700 ft
Windchill -2 °F
Dew Point 7 °F
Humidity 85%
Rainfall 0.00 in
Snow Depth Not available.
UV 0 out of 12
Pollen Not available.
Air Quality Not available.
Flu Activity Not available.
METAR CYLT 021000Z 34008KT 6SM -SN OVC017 M12/M14 A3016 RMK SC8 PCPN VRY LGT SLP218

More Conditions Fewer Conditions

Pressure 30.18 in
Visibility 6.0 miles
Clouds Overcast 1700 ft
Windchill -2 °F
Dew Point 7 °F
Humidity 85%
Rainfall 0.00 in
Snow Depth Not available.
UV 0 out of 12
Pollen Not available.
Air Quality Not available.
Flu Activity Not available.
METAR CYLT 021000Z 34008KT 6SM -SN OVC017 M12/M14 A3016 RMK SC8 PCPN VRY LGT SLP218

More Conditions Fewer Conditions

10-Day Weather Forecast

Almanac

Astronomy

Oct. 02, 2014 Rise Set
Actual Time 5:26 AM MDT 2:25 PM MDT
Civil Twilight 2:42 AM MDT 5:06 PM MDT
Nautical Twilight Sun does not rise 9:25 PM MDT
Astronomical Twilight Sun does not rise Sun does not rise
Moon No Moon Rise No Moon Set
Length of Visible Light 14h 24m
Length of Day
8h 59m
Tomorrow will be 25m 53s shorter.
First Quarter, 57% of the Moon is Illuminated
Today
First Quarter
Oct 8
Full
Oct 15
Last Quarter
Oct 23
New
Oct 30
First Quarter

Yesterday's Extremes

Country Highs Country Lows

Community

WunderPhotos

Upload Photos

1,758,209 photos uploaded!

WunderBlogs® & News

Nearby

Snow Depth

Not available.

Earthquake Activity

City Distance Mag. Time & Date
No recent earthquake activity has been reported nearby.
Minimum magnitude displayed is 2.5.

Coastal Water Temperatures

Place Temperature
No Stations Reporting

Nearby Weather Stations